Time;durP1;ratioP1;P1;durP2;ratioP2;P2;SDS_P1;SDS_P2;PMS_P1;PMS_P2;Temp;Humidity;BMP_temperature;BMP_pressure;BME280_temperature;BME280_humidity;BME280_pressure;Samples;Min_cycle;Max_cycle;Signal;HPM_P1;HPM_P2
2023/06/19 00:01:27;;;;;;;8.82;6.47;;;;;;;24.13;48.38;98464.44;4936221;29;20031;-72
2023/06/19 00:03:52;;;;;;;8.40;5.85;;;;;;;24.09;48.55;98457.91;4937348;29;20098;-72
2023/06/19 00:06:18;;;;;;;11.77;6.22;;;;;;;24.11;48.38;98463.84;4935986;29;20087;-72
2023/06/19 00:08:43;;;;;;;7.43;5.90;;;;;;;24.12;48.41;98470.84;4936104;29;20031;-72
2023/06/19 00:11:09;;;;;;;11.20;6.15;;;;;;;24.10;48.40;98479.03;4937263;29;20119;-72
2023/06/19 00:13:34;;;;;;;6.90;5.95;;;;;;;24.10;48.18;98481.72;4920299;29;20539;-72
2023/06/19 00:16:00;;;;;;;11.70;6.15;;;;;;;24.09;48.26;98489.91;4935898;29;20028;-72
2023/06/19 00:18:27;;;;;;;8.15;5.80;;;;;;;24.06;48.32;98491.16;4936374;29;20051;-72
2023/06/19 00:20:54;;;;;;;7.05;5.47;;;;;;;24.06;48.46;98496.47;4936195;29;20062;-72
2023/06/19 00:23:19;;;;;;;8.93;5.70;;;;;;;24.05;48.41;98496.69;4935964;29;20400;-72
2023/06/19 00:25:45;;;;;;;6.22;5.20;;;;;;;24.05;48.49;98496.69;4935728;29;20063;-72
2023/06/19 00:28:13;;;;;;;7.40;5.03;;;;;;;24.03;48.43;98502.22;4936240;29;20041;-72
2023/06/19 00:30:39;;;;;;;6.85;5.15;;;;;;;23.99;48.19;98499.16;4937008;29;20035;-72
2023/06/19 00:33:05;;;;;;;7.53;5.05;;;;;;;24.01;48.31;98504.28;4935603;29;20059;-72
2023/06/19 00:35:31;;;;;;;6.45;4.55;;;;;;;23.99;48.29;98504.50;4935821;29;20503;-71
2023/06/19 00:37:56;;;;;;;6.60;4.60;;;;;;;23.98;48.32;98510.03;4935354;29;20497;-72
2023/06/19 00:40:27;;;;;;;6.57;4.80;;;;;;;23.94;48.40;98504.31;4935827;29;20036;-72
2023/06/19 00:42:53;;;;;;;6.85;4.78;;;;;;;23.96;48.25;98512.09;4935680;29;20031;-72
2023/06/19 00:45:18;;;;;;;7.18;4.85;;;;;;;23.94;48.27;98509.66;4935386;29;20054;-73
2023/06/19 00:47:44;;;;;;;6.93;4.55;;;;;;;23.94;48.27;98512.31;4935355;29;20039;-72
2023/06/19 00:50:10;;;;;;;9.30;4.07;;;;;;;23.91;48.34;98507.41;4935222;29;20083;-72
2023/06/19 00:52:35;;;;;;;8.20;4.32;;;;;;;23.91;48.35;98512.72;4937170;29;20363;-72
2023/06/19 00:55:01;;;;;;;5.70;4.05;;;;;;;23.91;48.39;98504.72;4936573;29;20060;-72
2023/06/19 00:57:27;;;;;;;4.65;3.97;;;;;;;23.89;48.36;98505.97;4935267;29;20027;-72
2023/06/19 00:59:53;;;;;;;9.07;4.40;;;;;;;23.91;48.09;98503.91;4935677;29;20396;-71
2023/06/19 01:02:23;;;;;;;6.22;4.43;;;;;;;23.88;48.08;98499.81;4935126;29;20054;-72
2023/06/19 01:04:51;;;;;;;7.07;4.05;;;;;;;23.90;48.13;98505.75;4935013;29;20028;-72
2023/06/19 01:07:16;;;;;;;6.50;3.95;;;;;;;23.89;48.27;98498.78;4934992;29;20032;-72
2023/06/19 01:09:53;;;;;;;5.85;4.10;;;;;;;23.90;48.16;98502.28;4934885;29;20050;-72
2023/06/19 01:12:25;;;;;;;4.57;4.03;;;;;;;23.90;47.93;98505.75;4935103;29;20467;-72
2023/06/19 01:14:54;;;;;;;8.80;4.32;;;;;;;23.92;47.99;98508.22;4935088;29;20035;-72
2023/06/19 01:17:21;;;;;;;4.28;3.88;;;;;;;23.91;47.91;98495.91;4935009;29;20078;-72
2023/06/19 01:19:46;;;;;;;4.88;3.85;;;;;;;23.90;47.82;98508.41;4935119;29;20036;-72
2023/06/19 01:22:23;;;;;;;6.35;3.67;;;;;;;23.88;47.67;98501.66;4934635;29;20098;-72
2023/06/19 01:24:48;;;;;;;8.35;4.70;;;;;;;23.93;47.78;98499.19;4934808;29;20024;-72
2023/06/19 01:27:14;;;;;;;8.85;4.78;;;;;;;23.94;47.58;98506.97;4934608;29;20349;-72
2023/06/19 01:29:39;;;;;;;6.05;4.15;;;;;;;23.94;47.62;98508.81;4934858;29;20032;-72
2023/06/19 01:32:10;;;;;;;7.43;5.50;;;;;;;23.92;47.38;98503.69;4934708;29;20039;-72
2023/06/19 01:34:35;;;;;;;6.82;4.75;;;;;;;23.95;47.60;98502.47;4934645;29;20515;-72
2023/06/19 01:37:01;;;;;;;7.57;5.00;;;;;;;23.95;47.58;98511.25;4934502;29;20086;-72
2023/06/19 01:39:26;;;;;;;5.90;4.72;;;;;;;23.94;47.39;98506.16;4934547;29;20054;-72
2023/06/19 01:41:52;;;;;;;6.88;4.55;;;;;;;23.93;47.60;98508.00;4934280;29;20104;-72
2023/06/19 01:44:17;;;;;;;7.20;4.80;;;;;;;23.97;47.48;98514.56;4934272;29;20078;-72
2023/06/19 01:46:43;;;;;;;9.50;4.47;;;;;;;23.97;47.67;98505.72;4934824;29;20237;-72
2023/06/19 01:49:09;;;;;;;6.93;4.45;;;;;;;23.96;47.46;98504.91;4934561;29;20043;-72
2023/06/19 01:51:35;;;;;;;7.70;4.65;;;;;;;23.96;47.75;98515.59;4934207;29;20454;-71
2023/06/19 01:54:01;;;;;;;6.13;4.28;;;;;;;23.94;47.50;98508.81;4933627;29;20468;-72
2023/06/19 01:56:26;;;;;;;7.03;4.88;;;;;;;23.93;47.80;98500.00;4935367;29;20040;-72
2023/06/19 01:58:52;;;;;;;8.85;4.88;;;;;;;23.92;47.60;98498.34;4934134;29;20427;-72
2023/06/19 02:01:17;;;;;;;6.32;4.63;;;;;;;23.95;47.68;98502.47;4934099;29;20514;-72
2023/06/19 02:03:43;;;;;;;8.82;4.50;;;;;;;23.95;47.51;98503.28;4935285;29;20036;-72
2023/06/19 02:06:08;;;;;;;8.50;4.40;;;;;;;23.95;47.47;98508.59;4935194;29;20031;-72
2023/06/19 02:08:34;;;;;;;6.88;4.07;;;;;;;23.90;47.63;98508.41;4935458;29;20039;-72
2023/06/19 02:10:59;;;;;;;6.70;4.28;;;;;;;23.92;47.67;98514.34;4933924;29;20035;-72
2023/06/19 02:13:25;;;;;;;5.95;4.28;;;;;;;23.92;47.62;98526.88;4935286;29;20036;-72
2023/06/19 02:15:51;;;;;;;10.23;4.07;;;;;;;23.91;47.74;98519.88;4918203;29;20502;-72
2023/06/19 02:18:16;;;;;;;6.07;3.97;;;;;;;23.88;47.74;98517.63;4933896;29;20518;-72
2023/06/19 02:20:42;;;;;;;4.68;3.75;;;;;;;23.88;47.67;98529.13;4934470;29;20131;-72
2023/06/19 02:23:07;;;;;;;4.70;3.88;;;;;;;23.88;47.60;98523.81;4933645;29;20083;-72
2023/06/19 02:25:34;;;;;;;6.63;4.18;;;;;;;23.84;47.76;98511.91;4934879;29;20032;-72
2023/06/19 02:28:00;;;;;;;8.18;4.22;;;;;;;23.85;47.75;98518.91;4933728;29;20040;-72
2023/06/19 02:30:25;;;;;;;7.95;4.30;;;;;;;23.83;47.59;98529.75;4934879;29;20059;-72
2023/06/19 02:32:51;;;;;;;4.43;3.83;;;;;;;23.84;47.71;98526.06;4934801;29;20143;-72
2023/06/19 02:35:17;;;;;;;5.65;4.25;;;;;;;23.87;47.87;98526.69;4933690;29;20040;-72
2023/06/19 02:37:42;;;;;;;9.38;4.50;;;;;;;23.86;47.58;98541.03;4934856;29;20428;-72
2023/06/19 02:40:10;;;;;;;7.72;4.65;;;;;;;23.87;47.61;98550.66;4933300;29;20039;-72
2023/06/19 02:42:35;;;;;;;6.82;4.50;;;;;;;23.87;47.67;98545.34;4935087;29;20094;-72
2023/06/19 02:45:03;;;;;;;5.65;4.53;;;;;;;23.86;47.55;98536.50;4934746;29;20040;-72
2023/06/19 02:47:32;;;;;;;10.60;6.07;;;;;;;23.86;47.43;98541.84;4918229;29;20514;-72
2023/06/19 02:50:01;;;;;;;5.55;4.70;;;;;;;23.87;47.65;98559.47;4933674;29;20039;-72
2023/06/19 02:52:27;;;;;;;11.60;8.57;;;;;;;23.85;47.65;98561.53;4933393;29;20066;-72
2023/06/19 02:54:52;;;;;;;12.02;8.80;;;;;;;23.86;47.75;98559.69;4934495;29;20062;-72
2023/06/19 02:57:17;;;;;;;12.63;8.48;;;;;;;23.80;48.02;98562.13;4934436;29;20027;-72
2023/06/19 02:59:43;;;;;;;10.77;7.40;;;;;;;23.84;47.81;98571.34;4933478;29;20058;-72
2023/06/19 03:02:08;;;;;;;10.52;7.45;;;;;;;23.83;47.93;98564.41;4933498;29;20036;-69
2023/06/19 03:04:34;;;;;;;10.00;7.40;;;;;;;23.80;48.19;98570.13;4934402;29;20087;-72
2023/06/19 03:06:59;;;;;;;11.10;7.68;;;;;;;23.83;48.14;98569.75;4933286;29;20036;-72
2023/06/19 03:09:26;;;;;;;14.20;7.65;;;;;;;23.82;48.20;98569.91;4933269;29;20118;-72
2023/06/19 03:11:52;;;;;;;10.32;7.25;;;;;;;23.83;48.35;98576.88;4917417;29;20111;-71
2023/06/19 03:14:17;;;;;;;10.10;6.85;;;;;;;23.83;48.33;98575.06;4934441;29;20032;-72
2023/06/19 03:16:43;;;;;;;8.52;7.05;;;;;;;23.83;48.48;98574.19;4933325;29;20039;-73
2023/06/19 03:19:08;;;;;;;12.23;9.05;;;;;;;23.84;48.65;98576.69;4933417;29;20487;-72
2023/06/19 03:21:35;;;;;;;12.95;8.88;;;;;;;23.84;48.70;98587.34;4934588;29;20040;-72
2023/06/19 03:24:00;;;;;;;11.45;9.63;;;;;;;23.86;48.92;98583.66;4933235;29;20146;-72
2023/06/19 03:26:26;;;;;;;12.70;9.80;;;;;;;23.86;48.79;98589.00;4933088;29;20075;-72
2023/06/19 03:28:52;;;;;;;14.52;10.32;;;;;;;23.86;48.74;98587.16;4933251;29;20028;-72
2023/06/19 03:31:18;;;;;;;13.85;9.73;;;;;;;23.89;48.86;98593.91;4934932;29;20031;-73
2023/06/19 03:33:43;;;;;;;12.35;9.68;;;;;;;23.87;49.04;98586.13;4920969;29;20040;-81
2023/06/19 03:36:08;;;;;;;11.15;9.30;;;;;;;23.93;49.00;98597.81;4936514;29;20043;-79
2023/06/19 03:38:34;;;;;;;4.70;3.55;;;;;;;24.15;53.13;98593.06;4936373;29;20035;-75
2023/06/19 03:41:00;;;;;;;9.02;4.78;;;;;;;24.30;52.14;98584.81;4936582;29;20024;-71
2023/06/19 03:43:25;;;;;;;9.05;4.53;;;;;;;24.62;51.20;98582.28;4936608;29;20059;-74
2023/06/19 03:45:51;;;;;;;6.80;4.00;;;;;;;24.77;51.77;98579.34;4937665;29;20028;-73
2023/06/19 03:48:17;;;;;;;5.35;3.85;;;;;;;24.88;51.12;98584.81;4937719;29;20043;-72
2023/06/19 03:50:42;;;;;;;9.90;4.15;;;;;;;25.36;49.96;98578.16;4936301;29;20548;-72
2023/06/19 03:53:08;;;;;;;13.10;4.28;;;;;;;25.65;49.16;98575.91;4936562;29;20418;-70
2023/06/19 03:55:33;;;;;;;14.82;3.95;;;;;;;25.85;48.62;98577.56;4936206;29;20056;-71
2023/06/19 03:57:59;;;;;;;6.63;3.70;;;;;;;25.94;48.24;98579.75;4935803;29;20135;-67
2023/06/19 04:00:24;;;;;;;8.30;3.95;;;;;;;25.97;48.48;98584.69;4937464;29;20093;-72
2023/06/19 04:02:50;;;;;;;13.68;3.80;;;;;;;26.10;47.69;98589.06;4936170;29;20444;-70
2023/06/19 04:05:15;;;;;;;6.05;3.53;;;;;;;26.11;48.01;98581.88;4936207;29;20039;-72
2023/06/19 04:07:41;;;;;;;7.63;3.50;;;;;;;26.18;47.62;98579.94;4936362;29;20066;-68
2023/06/19 04:10:07;;;;;;;9.10;3.65;;;;;;;26.35;47.44;98578.31;4936355;29;20040;-69
2023/06/19 04:12:32;;;;;;;6.40;3.55;;;;;;;26.58;47.06;98586.69;4936301;29;20558;-70
2023/06/19 04:14:58;;;;;;;6.47;3.55;;;;;;;26.94;46.25;98593.88;4936098;29;20055;-70
2023/06/19 04:17:23;;;;;;;6.57;3.30;;;;;;;26.81;46.13;98588.72;4919973;29;20523;-71
2023/06/19 04:19:49;;;;;;;6.35;3.70;;;;;;;26.77;46.16;98588.31;4935502;29;20038;-70
2023/06/19 04:22:16;;;;;;;8.52;3.55;;;;;;;26.72;46.39;98582.84;4936997;29;20036;-70
2023/06/19 04:24:41;;;;;;;9.97;3.90;;;;;;;26.74;46.28;98593.31;4935948;29;20043;-70
2023/06/19 04:27:10;;;;;;;8.20;3.47;;;;;;;26.72;46.59;98590.88;4935913;29;20423;-70
2023/06/19 04:29:35;;;;;;;7.80;3.67;;;;;;;26.67;46.32;98588.88;4937185;29;20031;-70
2023/06/19 04:32:03;;;;;;;7.32;3.45;;;;;;;26.61;46.90;98588.94;4935846;29;20043;-70
2023/06/19 04:34:28;;;;;;;6.05;5.45;;;;;;;26.58;46.53;98589.38;4935821;29;20419;-71
2023/06/19 04:36:58;;;;;;;8.15;4.80;;;;;;;26.54;46.76;98600.53;4936164;29;20040;-70
2023/06/19 04:39:23;;;;;;;11.38;4.50;;;;;;;26.52;47.17;98594.59;4936702;29;20027;-70
2023/06/19 04:41:49;;;;;;;6.22;4.63;;;;;;;26.52;46.94;98599.13;4935780;29;20495;-70
2023/06/19 04:44:14;;;;;;;8.25;4.97;;;;;;;26.53;46.86;98604.28;4935188;29;20038;-70
2023/06/19 04:46:41;;;;;;;7.47;4.68;;;;;;;26.52;47.01;98607.97;4936691;29;20043;-70
2023/06/19 04:49:06;;;;;;;7.85;5.13;;;;;;;26.50;46.55;98598.53;4919420;29;20040;-70
2023/06/19 04:51:34;;;;;;;8.25;6.30;;;;;;;26.46;46.92;98598.16;4935438;29;20519;-70
2023/06/19 04:54:00;;;;;;;6.95;5.70;;;;;;;26.45;47.13;98601.06;4935372;29;20031;-71
2023/06/19 04:56:25;;;;;;;9.15;5.97;;;;;;;26.40;47.01;98592.88;4935435;29;20051;-70
2023/06/19 04:58:51;;;;;;;8.68;6.00;;;;;;;26.40;46.81;98603.59;4936670;29;20038;-70
2023/06/19 05:01:17;;;;;;;8.68;6.00;;;;;;;26.42;46.90;98606.84;4935342;29;20511;-71
2023/06/19 05:03:45;;;;;;;7.72;6.10;;;;;;;26.43;47.08;98597.78;4935402;29;20168;-70
2023/06/19 05:06:11;;;;;;;10.65;6.03;;;;;;;26.50;46.95;98604.72;4936492;29;20040;-71
2023/06/19 05:08:36;;;;;;;8.50;6.65;;;;;;;26.54;46.74;98605.88;4935237;29;20102;-70
2023/06/19 05:11:02;;;;;;;8.00;6.38;;;;;;;26.60;46.72;98598.81;4936212;29;20476;-69
2023/06/19 05:13:27;;;;;;;9.45;6.50;;;;;;;26.62;46.59;98603.97;4919299;29;20043;-70
2023/06/19 05:15:53;;;;;;;7.82;6.30;;;;;;;27.02;45.65;98603.47;4935162;29;20039;-72
2023/06/19 05:18:18;;;;;;;7.22;6.10;;;;;;;27.08;45.45;98600.69;4934968;29;20035;-71
2023/06/19 05:20:44;;;;;;;8.65;6.28;;;;;;;27.28;44.73;98604.97;4919748;29;20139;-72
2023/06/19 05:23:10;;;;;;;7.78;5.60;;;;;;;27.40;44.33;98610.38;4934748;29;20130;-71
2023/06/19 05:25:35;;;;;;;6.60;5.40;;;;;;;27.56;44.17;98603.50;4919298;29;20048;-69
2023/06/19 05:28:01;;;;;;;10.13;5.88;;;;;;;27.89;43.72;98611.00;4934840;29;20400;-71
2023/06/19 05:30:26;;;;;;;8.45;5.18;;;;;;;27.95;43.43;98598.56;4936200;29;20122;-71
2023/06/19 05:32:52;;;;;;;10.70;5.68;;;;;;;28.03;43.34;98603.56;4918976;29;20040;-70
2023/06/19 05:35:17;;;;;;;7.22;5.25;;;;;;;28.55;42.08;98612.72;4936089;29;20040;-72
2023/06/19 05:37:43;;;;;;;6.38;4.93;;;;;;;28.43;42.38;98613.59;4950830;29;20035;-70
2023/06/19 05:40:09;;;;;;;6.00;4.90;;;;;;;28.32;42.75;98617.91;4934685;29;20036;-71
2023/06/19 05:42:38;;;;;;;5.35;4.82;;;;;;;28.24;42.69;98620.94;4934467;29;20038;-70
2023/06/19 05:45:04;;;;;;;5.78;5.03;;;;;;;28.21;42.71;98621.44;4950402;28;20047;-71
2023/06/19 05:47:30;;;;;;;6.75;4.80;;;;;;;28.18;42.65;98623.75;4935444;29;20026;-71
2023/06/19 05:49:56;;;;;;;6.88;4.90;;;;;;;28.13;42.68;98625.28;4934454;29;20112;-71
2023/06/19 05:52:22;;;;;;;7.78;4.63;;;;;;;28.10;42.62;98619.53;4934201;29;20048;-71
2023/06/19 05:54:47;;;;;;;8.35;5.10;;;;;;;28.06;42.62;98624.56;4934954;29;20064;-72
2023/06/19 05:57:15;;;;;;;8.70;4.78;;;;;;;28.09;42.66;98636.72;4935527;29;20034;-72
2023/06/19 05:59:41;;;;;;;9.25;4.60;;;;;;;28.10;42.70;98632.97;4934347;29;20059;-71
2023/06/19 06:02:07;;;;;;;6.68;4.78;;;;;;;28.06;42.74;98627.25;4918207;29;20063;-72
2023/06/19 06:04:34;;;;;;;6.95;4.57;;;;;;;28.09;42.67;98642.88;4950111;28;20035;-69
2023/06/19 06:07:00;;;;;;;6.10;4.53;;;;;;;28.04;42.82;98640.09;4934144;29;20035;-71
2023/06/19 06:09:25;;;;;;;6.05;4.43;;;;;;;28.08;42.86;98640.44;4933894;29;20036;-70
2023/06/19 06:11:50;;;;;;;5.28;4.07;;;;;;;28.05;42.71;98641.72;4934884;29;20044;-71
2023/06/19 06:14:16;;;;;;;5.82;4.15;;;;;;;28.06;42.75;98635.31;4949770;29;20063;-70
2023/06/19 06:16:41;;;;;;;9.38;4.00;;;;;;;28.27;42.44;98636.56;4933823;29;20078;-71
2023/06/19 06:19:07;;;;;;;7.70;4.63;;;;;;;28.43;42.01;98642.28;4935150;29;20110;-71
2023/06/19 06:21:34;;;;;;;4.90;4.00;;;;;;;28.96;40.85;98637.75;4934033;29;20039;-71
2023/06/19 06:24:00;;;;;;;5.55;4.05;;;;;;;29.35;40.01;98640.63;4935236;29;20399;-70
2023/06/19 06:26:27;;;;;;;6.53;3.92;;;;;;;29.45;39.37;98631.94;4935246;29;20036;-71
2023/06/19 06:28:53;;;;;;;4.72;3.60;;;;;;;29.71;39.10;98631.28;4933954;29;20042;-70
2023/06/19 06:31:18;;;;;;;5.07;3.35;;;;;;;30.34;37.99;98631.16;4934864;29;20114;-69
2023/06/19 06:33:44;;;;;;;5.90;3.75;;;;;;;31.91;35.41;98635.00;4933694;29;20468;-71
2023/06/19 06:36:10;;;;;;;4.22;3.80;;;;;;;31.45;35.96;98639.19;4933684;29;20032;-70
2023/06/19 06:38:35;;;;;;;11.25;3.97;;;;;;;31.92;35.11;98642.00;4935016;29;20091;-72
2023/06/19 06:41:00;;;;;;;11.55;3.60;;;;;;;32.63;33.98;98635.44;4934724;29;20032;-70
2023/06/19 06:43:26;;;;;;;6.03;3.53;;;;;;;34.10;31.70;98634.28;4933758;29;20059;-71
2023/06/19 06:45:51;;;;;;;5.95;3.60;;;;;;;35.17;29.79;98634.97;4934094;29;20562;-72
2023/06/19 06:48:17;;;;;;;8.10;3.30;;;;;;;35.51;28.83;98626.84;4934016;29;20044;-70
2023/06/19 06:50:43;;;;;;;7.35;3.28;;;;;;;34.83;30.00;98630.28;4933972;29;20043;-71
2023/06/19 06:53:08;;;;;;;5.70;3.08;;;;;;;35.59;28.95;98632.78;4933566;29;20040;-71
2023/06/19 06:55:36;;;;;;;5.53;3.40;;;;;;;35.86;28.52;98627.66;4934681;29;20055;-70
2023/06/19 06:58:01;;;;;;;5.45;3.17;;;;;;;35.40;28.90;98628.03;4934699;29;20054;-70
2023/06/19 07:00:27;;;;;;;7.72;3.17;;;;;;;35.96;28.09;98624.06;4934686;29;20044;-71
2023/06/19 07:02:53;;;;;;;5.55;3.22;;;;;;;36.82;27.19;98633.44;4934716;29;20032;-70
2023/06/19 07:05:18;;;;;;;7.43;3.20;;;;;;;37.40;26.67;98627.72;4933858;29;20032;-71
2023/06/19 07:07:44;;;;;;;5.80;2.92;;;;;;;37.67;25.77;98623.47;4937488;29;20077;-72
2023/06/19 07:10:10;;;;;;;5.07;3.13;;;;;;;37.99;25.30;98633.53;4937415;29;20091;-71
2023/06/19 07:12:36;;;;;;;7.25;3.30;;;;;;;38.40;24.79;98626.50;4937481;29;20036;-71
2023/06/19 07:15:01;;;;;;;5.10;2.97;;;;;;;38.66;24.16;98628.72;4920969;29;20403;-72
2023/06/19 07:17:27;;;;;;;4.78;2.97;;;;;;;38.91;24.10;98625.44;4937067;29;20046;-72
2023/06/19 07:19:52;;;;;;;6.93;3.15;;;;;;;39.14;23.82;98627.41;4936940;29;20044;-72
2023/06/19 07:22:18;;;;;;;7.30;3.47;;;;;;;39.27;23.66;98637.47;4921156;29;20042;-74
2023/06/19 07:24:43;;;;;;;6.05;3.00;;;;;;;39.39;23.62;98631.44;4937048;29;20083;-71
2023/06/19 07:27:09;;;;;;;6.88;3.28;;;;;;;39.48;22.81;98639.72;4936977;29;20035;-70
2023/06/19 07:29:34;;;;;;;5.25;2.97;;;;;;;39.50;23.08;98634.75;4938153;29;20038;-71
2023/06/19 07:32:02;;;;;;;4.10;2.60;;;;;;;39.56;23.21;98634.31;4936924;29;20063;-70
2023/06/19 07:34:27;;;;;;;7.50;2.70;;;;;;;39.63;23.03;98639.34;4937244;29;20028;-71
2023/06/19 07:36:53;;;;;;;10.45;3.13;;;;;;;39.66;22.66;98632.47;4938368;29;20475;-71
2023/06/19 07:39:19;;;;;;;4.15;3.03;;;;;;;39.62;22.79;98633.09;4938408;29;20479;-74
2023/06/19 07:41:45;;;;;;;10.40;3.03;;;;;;;39.60;23.06;98638.06;4937885;29;20051;-73
2023/06/19 07:44:11;;;;;;;6.57;3.00;;;;;;;39.60;22.39;98638.06;4938063;29;20111;-71
2023/06/19 07:46:36;;;;;;;5.25;2.90;;;;;;;39.52;23.00;98641.56;4937103;29;20119;-72
2023/06/19 07:49:02;;;;;;;6.13;2.67;;;;;;;39.46;22.51;98640.03;4921142;29;20043;-71
2023/06/19 07:51:27;;;;;;;6.00;2.88;;;;;;;39.23;23.52;98636.47;4938000;29;20028;-71
2023/06/19 07:53:52;;;;;;;5.70;2.80;;;;;;;39.16;23.43;98638.84;4936588;29;20083;-70
2023/06/19 07:56:18;;;;;;;3.92;2.70;;;;;;;39.08;23.60;98641.19;4937907;29;20031;-70
2023/06/19 07:58:43;;;;;;;8.88;3.17;;;;;;;39.02;23.33;98641.59;4937801;29;20035;-71
2023/06/19 08:01:10;;;;;;;4.57;2.60;;;;;;;39.02;23.92;98647.03;4938290;29;20571;-72
2023/06/19 08:03:35;;;;;;;6.53;3.00;;;;;;;39.06;23.36;98648.84;4920750;29;20503;-70
2023/06/19 08:06:01;;;;;;;4.57;2.72;;;;;;;39.07;23.50;98647.75;4937676;29;20035;-72
2023/06/19 08:08:26;;;;;;;5.18;3.42;;;;;;;39.11;22.70;98658.03;4936492;29;20032;-70
2023/06/19 08:10:52;;;;;;;4.90;2.72;;;;;;;38.84;23.64;98651.50;4936493;29;20031;-70
2023/06/19 08:13:17;;;;;;;6.03;3.00;;;;;;;38.07;23.67;98666.66;4936110;29;20032;-73
2023/06/19 08:15:44;;;;;;;7.57;3.17;;;;;;;37.37;25.35;98660.97;4937301;29;20543;-71
2023/06/19 08:18:09;;;;;;;6.63;2.97;;;;;;;36.78;26.62;98662.31;4935639;29;20027;-72
2023/06/19 08:20:35;;;;;;;5.82;2.90;;;;;;;36.18;27.64;98656.16;4936636;29;20507;-73
2023/06/19 08:23:00;;;;;;;5.22;3.25;;;;;;;35.76;28.06;98662.28;4936386;29;20043;-71
2023/06/19 08:25:26;;;;;;;4.32;2.88;;;;;;;35.34;28.94;98672.59;4937634;29;20476;-71
2023/06/19 08:27:51;;;;;;;5.55;3.38;;;;;;;34.88;28.94;98662.78;4936328;29;20051;-72
2023/06/19 08:30:17;;;;;;;4.72;3.03;;;;;;;34.45;29.36;98661.59;4935905;29;20460;-71
2023/06/19 08:32:43;;;;;;;4.78;3.28;;;;;;;34.05;29.89;98674.94;4936037;29;20031;-70
2023/06/19 08:35:09;;;;;;;6.95;3.38;;;;;;;33.62;30.08;98663.53;4935838;29;20502;-70
2023/06/19 08:37:34;;;;;;;6.32;3.40;;;;;;;33.26;31.17;98677.84;4935941;29;20036;-71
2023/06/19 08:40:00;;;;;;;6.85;3.30;;;;;;;33.00;31.97;98675.03;4936383;29;20043;-73
2023/06/19 08:42:25;;;;;;;7.82;3.55;;;;;;;32.70;32.58;98667.63;4935703;29;20032;-71
2023/06/19 08:44:51;;;;;;;5.95;3.35;;;;;;;33.09;31.54;98682.63;4936037;29;20038;-71
2023/06/19 08:47:16;;;;;;;7.90;3.70;;;;;;;33.40;31.28;98680.84;4935608;29;20028;-72
2023/06/19 08:49:42;;;;;;;5.05;3.20;;;;;;;33.61;30.55;98678.97;4935592;29;20043;-71
2023/06/19 08:52:08;;;;;;;6.53;3.45;;;;;;;33.85;30.73;98678.44;4936555;29;20091;-71
2023/06/19 08:54:33;;;;;;;6.30;3.53;;;;;;;34.04;30.25;98674.09;4919286;29;20085;-70
2023/06/19 08:57:02;;;;;;;5.20;3.55;;;;;;;33.93;29.11;98668.97;4935915;29;20050;-73
2023/06/19 08:59:31;;;;;;;6.00;3.50;;;;;;;33.79;30.13;98684.94;4935617;29;20035;-71
2023/06/19 09:01:57;;;;;;;5.07;3.17;;;;;;;34.18;29.33;98668.94;4935184;29;20039;-71
2023/06/19 09:04:26;;;;;;;6.72;3.45;;;;;;;34.37;29.54;98671.09;4919750;29;20040;-71
2023/06/19 09:06:53;;;;;;;6.10;3.22;;;;;;;34.47;29.54;98681.09;4935309;29;20034;-71
2023/06/19 09:09:20;;;;;;;4.57;3.20;;;;;;;34.56;29.06;98666.69;4935455;29;20386;-71
2023/06/19 09:12:05;;;;;;;6.43;3.08;;;;;;;34.37;29.55;98666.47;4935204;29;20070;-71
2023/06/19 09:14:31;;;;;;;4.35;3.30;;;;;;;34.19;28.94;98677.84;4919125;29;20074;-69
2023/06/19 09:16:57;;;;;;;6.28;3.10;;;;;;;33.95;29.96;98672.22;4934963;29;20380;-71
2023/06/19 09:19:22;;;;;;;4.13;3.20;;;;;;;33.87;30.01;98668.16;4935119;29;20038;-73
2023/06/19 09:21:48;;;;;;;5.57;3.10;;;;;;;34.17;29.65;98666.50;4935440;29;20452;-70
2023/06/19 09:24:13;;;;;;;5.18;3.22;;;;;;;34.11;29.51;98663.00;4934921;29;20086;-70
2023/06/19 09:26:39;;;;;;;3.90;3.03;;;;;;;33.71;29.96;98661.94;4935165;29;20537;-70
2023/06/19 09:29:11;;;;;;;6.18;3.00;;;;;;;33.72;30.47;98661.66;4934623;29;20031;-71
2023/06/19 09:31:38;;;;;;;4.40;3.10;;;;;;;33.91;29.75;98660.31;4918863;29;20135;-71
2023/06/19 09:34:04;;;;;;;7.78;3.10;;;;;;;33.83;30.53;98667.09;4934822;29;20024;-70
2023/06/19 09:36:31;;;;;;;5.70;3.05;;;;;;;33.72;30.75;98661.66;4934690;29;20046;-71
2023/06/19 09:38:57;;;;;;;4.95;3.40;;;;;;;33.81;30.54;98658.41;4934865;29;20036;-73
2023/06/19 09:41:22;;;;;;;4.88;3.13;;;;;;;33.74;30.39;98663.31;4918822;29;20044;-71
2023/06/19 09:43:48;;;;;;;6.00;2.65;;;;;;;33.49;30.75;98665.69;4934612;29;20403;-73
2023/06/19 09:46:14;;;;;;;7.53;3.08;;;;;;;33.30;31.08;98670.00;4934418;29;20036;-70
2023/06/19 09:48:44;;;;;;;4.28;3.10;;;;;;;33.25;30.43;98664.59;4934588;29;20035;-71
2023/06/19 09:51:15;;;;;;;6.57;3.03;;;;;;;33.34;30.02;98669.19;4934542;29;20027;-71
2023/06/19 09:53:40;;;;;;;4.60;3.05;;;;;;;33.37;30.88;98659.72;4936153;29;20039;-71
2023/06/19 09:56:07;;;;;;;3.63;2.70;;;;;;;33.47;30.95;98665.13;4934393;29;20063;-71
2023/06/19 09:58:33;;;;;;;6.82;2.80;;;;;;;33.60;30.34;98661.09;4935377;29;20027;-70
2023/06/19 10:00:59;;;;;;;5.60;2.70;;;;;;;33.53;30.90;98653.25;4934316;29;20407;-69
2023/06/19 10:03:35;;;;;;;8.55;3.47;;;;;;;33.42;30.40;98657.03;4918356;29;20493;-69
2023/06/19 10:06:01;;;;;;;5.47;3.33;;;;;;;33.32;30.67;98652.44;4934096;29;20069;-70
2023/06/19 10:08:29;;;;;;;5.60;3.42;;;;;;;33.23;30.88;98653.22;4918295;29;20057;-69
2023/06/19 10:10:55;;;;;;;5.85;3.38;;;;;;;33.09;31.65;98647.47;4934490;29;20032;-71
2023/06/19 10:13:20;;;;;;;4.60;3.50;;;;;;;32.94;31.35;98645.53;4934397;29;20114;-69
2023/06/19 10:15:47;;;;;;;4.18;3.20;;;;;;;32.86;31.42;98656.88;4933949;29;20057;-70
2023/06/19 10:18:16;;;;;;;6.75;3.63;;;;;;;32.70;32.24;98643.28;4935291;29;20031;-71
2023/06/19 10:20:43;;;;;;;7.00;3.50;;;;;;;32.55;31.81;98637.81;4934249;29;20134;-70
2023/06/19 10:23:20;;;;;;;7.45;3.30;;;;;;;32.43;32.50;98646.13;4934090;29;20063;-69
2023/06/19 10:25:47;;;;;;;5.68;3.22;;;;;;;32.29;32.75;98637.66;4934032;29;20087;-71
2023/06/19 10:28:22;;;;;;;5.88;3.42;;;;;;;32.16;33.43;98643.56;4933979;29;20050;-70
2023/06/19 10:31:05;;;;;;;4.43;3.38;;;;;;;32.01;33.46;98623.44;4933930;29;20055;-71
2023/06/19 10:33:34;;;;;;;5.40;3.30;;;;;;;31.97;33.85;98625.03;4934013;29;20036;-73
2023/06/19 10:36:16;;;;;;;5.60;3.05;;;;;;;31.88;33.79;98627.44;4933811;29;20095;-70
2023/06/19 10:38:47;;;;;;;4.28;3.40;;;;;;;31.78;33.76;98630.03;4934760;29;20040;-70
2023/06/19 10:41:31;;;;;;;5.00;3.50;;;;;;;31.69;34.02;98643.22;4933270;29;20042;-70
2023/06/19 10:43:58;;;;;;;8.35;3.47;;;;;;;31.64;34.15;98640.44;4934083;29;20510;-71
2023/06/19 10:46:24;;;;;;;5.40;3.33;;;;;;;31.56;35.07;98632.81;4933756;29;20059;-70
2023/06/19 10:48:51;;;;;;;6.55;3.25;;;;;;;31.53;35.17;98630.66;4933929;29;20038;-70
2023/06/19 10:51:20;;;;;;;5.35;3.40;;;;;;;31.43;35.56;98634.03;4933551;29;20056;-70
2023/06/19 10:53:45;;;;;;;5.65;3.28;;;;;;;31.45;35.60;98637.28;4933543;29;20056;-72
2023/06/19 10:56:11;;;;;;;4.80;3.45;;;;;;;31.48;35.58;98628.69;4933324;29;20066;-70
2023/06/19 10:58:36;;;;;;;3.80;3.15;;;;;;;31.62;35.16;98631.00;4933438;29;20035;-70
2023/06/19 11:01:01;;;;;;;5.70;3.20;;;;;;;31.63;36.34;98619.94;4933641;29;20404;-67
2023/06/19 11:03:28;;;;;;;8.30;3.40;;;;;;;31.55;34.99;98623.94;4917805;29;20125;-69
2023/06/19 11:05:54;;;;;;;9.73;4.00;;;;;;;31.43;34.74;98620.56;4949575;29;20122;-72
2023/06/19 11:08:23;;;;;;;10.93;3.40;;;;;;;31.06;35.33;98621.28;4933620;29;20048;-72
2023/06/19 11:10:49;;;;;;;10.57;3.83;;;;;;;30.90;36.05;98614.06;4933895;29;20028;-71
2023/06/19 11:13:15;;;;;;;10.13;3.88;;;;;;;30.84;37.01;98626.69;4933491;29;20044;-69
2023/06/19 11:15:41;;;;;;;5.13;3.45;;;;;;;30.85;36.77;98634.53;4933434;29;20042;-68
2023/06/19 11:18:06;;;;;;;5.70;3.80;;;;;;;31.01;36.78;98630.16;4933447;29;20043;-70
2023/06/19 11:20:43;;;;;;;5.95;3.97;;;;;;;31.13;36.39;98618.38;4934338;29;20415;-68
2023/06/19 11:23:09;;;;;;;6.15;3.58;;;;;;;31.32;35.94;98616.94;4933399;29;20119;-69
2023/06/19 11:25:38;;;;;;;7.68;3.55;;;;;;;31.46;35.51;98625.44;4934458;29;20562;-69
2023/06/19 11:28:22;;;;;;;6.13;3.72;;;;;;;31.30;35.98;98624.50;4933297;29;20106;-69